createdAt,value
2022-08-25T00:02:39.042Z,5.13
2022-08-25T00:05:42.216Z,5.95
2022-08-25T00:08:47.874Z,5.55
2022-08-25T00:11:51.368Z,5.90
2022-08-25T00:14:55.421Z,5.30
2022-08-25T00:17:58.508Z,5.50
2022-08-25T00:21:01.328Z,5.28
2022-08-25T00:24:06.004Z,5.00
2022-08-25T00:27:09.538Z,5.27
2022-08-25T00:30:15.931Z,5.27
2022-08-25T00:33:19.509Z,5.00
2022-08-25T00:36:22.681Z,5.18
2022-08-25T00:39:28.016Z,4.97
2022-08-25T00:42:31.523Z,5.40
2022-08-25T00:45:35.488Z,5.07
2022-08-25T00:48:42.308Z,5.68
2022-08-25T00:51:51.492Z,5.50
2022-08-25T00:55:04.299Z,4.68
2022-08-25T00:58:17.166Z,5.30
2022-08-25T01:01:20.040Z,5.50
2022-08-25T01:04:23.899Z,4.90
2022-08-25T01:07:26.719Z,5.20
2022-08-25T01:10:32.238Z,5.20
2022-08-25T01:13:38.963Z,5.60
2022-08-25T01:16:43.927Z,5.20
2022-08-25T01:19:46.577Z,5.20
2022-08-25T01:22:54.997Z,5.50
2022-08-25T01:26:04.975Z,5.53
2022-08-25T01:29:22.792Z,4.93
2022-08-25T01:32:26.043Z,5.50
2022-08-25T01:35:28.878Z,4.72
2022-08-25T01:38:32.903Z,5.35
2022-08-25T01:41:47.956Z,4.80
2022-08-25T01:44:54.524Z,5.07
2022-08-25T01:47:57.376Z,5.53
2022-08-25T01:51:00.013Z,4.70
2022-08-25T01:54:04.233Z,4.90
2022-08-25T01:57:06.983Z,4.90
2022-08-25T02:00:13.407Z,5.40
2022-08-25T02:03:18.768Z,5.00
2022-08-25T02:06:29.812Z,5.15
2022-08-25T02:09:34.787Z,5.25
2022-08-25T02:12:37.626Z,5.03
2022-08-25T02:15:43.039Z,5.23
2022-08-25T02:18:46.479Z,5.50
2022-08-25T02:21:49.125Z,5.10
2022-08-25T02:24:55.519Z,5.30
2022-08-25T02:27:58.396Z,5.07
2022-08-25T02:31:01.885Z,5.20
2022-08-25T02:34:05.358Z,4.87
2022-08-25T02:37:09.720Z,5.38
2022-08-25T02:40:14.412Z,5.18
2022-08-25T02:43:17.374Z,5.20
2022-08-25T02:46:21.854Z,4.97
2022-08-25T02:49:25.340Z,5.20
2022-08-25T02:52:28.104Z,5.35
2022-08-25T02:55:33.703Z,5.57
2022-08-25T02:58:38.567Z,5.03
2022-08-25T03:01:41.684Z,5.30
2022-08-25T03:04:45.243Z,4.67
2022-08-25T03:07:48.110Z,5.10
2022-08-25T03:10:52.919Z,5.15
2022-08-25T03:13:56.623Z,5.55
2022-08-25T03:16:59.419Z,5.10
2022-08-25T03:20:02.336Z,5.37
2022-08-25T03:23:06.086Z,4.93
2022-08-25T03:26:33.803Z,5.27
2022-08-25T03:29:36.520Z,4.80
2022-08-25T03:32:40.025Z,5.15
2022-08-25T03:35:42.971Z,5.25
2022-08-25T03:38:46.228Z,5.55
2022-08-25T03:41:51.628Z,5.90
2022-08-25T03:44:54.805Z,5.80
2022-08-25T03:47:57.834Z,5.80
2022-08-25T03:51:00.903Z,6.15
2022-08-25T03:54:05.261Z,5.93
2022-08-25T03:57:09.796Z,6.60
2022-08-25T04:00:13.208Z,6.60
2022-08-25T04:03:16.568Z,7.35
2022-08-25T04:06:20.318Z,7.43
2022-08-25T04:09:23.655Z,6.55
2022-08-25T04:12:27.670Z,6.60
2022-08-25T04:15:30.466Z,7.40
2022-08-25T04:18:34.282Z,7.00
2022-08-25T04:21:37.853Z,6.47
2022-08-25T04:24:40.630Z,7.13
2022-08-25T04:27:44.726Z,7.73
2022-08-25T04:30:51.838Z,6.97
2022-08-25T04:33:55.307Z,7.05
2022-08-25T04:36:58.251Z,7.25
2022-08-25T04:40:01.085Z,6.82
2022-08-25T04:43:05.148Z,7.47
2022-08-25T04:46:11.292Z,7.00
2022-08-25T04:49:14.059Z,7.13
2022-08-25T04:52:17.057Z,7.50
2022-08-25T04:55:20.131Z,7.22
2022-08-25T04:58:24.258Z,6.80
2022-08-25T05:01:27.298Z,7.20
2022-08-25T05:04:31.232Z,7.65
2022-08-25T05:07:33.952Z,6.72
2022-08-25T05:10:41.230Z,7.63
2022-08-25T05:13:51.273Z,7.20
2022-08-25T05:16:55.142Z,6.27
2022-08-25T05:19:58.011Z,8.30
2022-08-25T05:23:00.659Z,7.03
2022-08-25T05:26:05.987Z,6.30
2022-08-25T05:29:10.940Z,7.57
2022-08-25T05:32:13.605Z,7.17
2022-08-25T05:35:16.589Z,6.97
2022-08-25T05:38:20.074Z,7.15
2022-08-25T05:41:28.402Z,7.32
2022-08-25T05:44:32.395Z,7.90
2022-08-25T05:47:35.444Z,7.37
2022-08-25T05:50:38.061Z,7.57
2022-08-25T05:53:43.013Z,7.65
2022-08-25T05:56:46.468Z,7.88
2022-08-25T05:59:50.664Z,7.97
2022-08-25T06:02:52.370Z,8.80
2022-08-25T06:05:55.269Z,8.90
2022-08-25T06:08:58.054Z,8.70
2022-08-25T06:12:00.687Z,8.30
2022-08-25T06:15:06.107Z,9.43
2022-08-25T06:18:08.834Z,7.90
2022-08-25T06:21:13.719Z,8.00
2022-08-25T06:24:16.536Z,8.75
2022-08-25T06:27:19.476Z,9.50
2022-08-25T06:30:28.559Z,9.17
2022-08-25T06:33:32.386Z,9.20
2022-08-25T06:36:35.695Z,9.18
2022-08-25T06:39:38.431Z,10.98
2022-08-25T06:42:41.151Z,10.38
2022-08-25T06:45:45.153Z,11.20
2022-08-25T06:48:48.414Z,9.70
2022-08-25T06:51:51.257Z,9.20
2022-08-25T06:54:54.643Z,9.07
2022-08-25T06:57:57.297Z,10.65
2022-08-25T07:01:13.449Z,10.13
2022-08-25T07:04:18.745Z,10.57
2022-08-25T07:07:21.407Z,9.90
2022-08-25T07:10:24.476Z,11.80
2022-08-25T07:13:27.273Z,10.18
2022-08-25T07:16:34.273Z,9.23
2022-08-25T07:19:37.004Z,9.83
2022-08-25T07:22:40.169Z,11.40
2022-08-25T07:25:42.879Z,9.00
2022-08-25T07:28:47.439Z,9.05
2022-08-25T07:31:51.961Z,9.03
2022-08-25T07:35:12.531Z,9.93
2022-08-25T07:38:19.653Z,9.70
2022-08-25T07:41:23.825Z,9.50
2022-08-25T07:44:27.999Z,9.68
2022-08-25T07:47:32.717Z,8.93
2022-08-25T07:50:36.201Z,10.90
2022-08-25T07:53:40.169Z,9.45
2022-08-25T07:56:43.272Z,9.30
2022-08-25T07:59:46.920Z,8.48
2022-08-25T08:02:51.140Z,8.93
2022-08-25T08:05:56.462Z,9.07
2022-08-25T08:09:00.013Z,9.98
2022-08-25T08:12:02.724Z,10.45
2022-08-25T08:15:10.382Z,10.80
2022-08-25T08:18:15.987Z,10.40
2022-08-25T08:21:21.741Z,9.43
2022-08-25T08:24:40.627Z,9.50
2022-08-25T08:27:47.173Z,10.43
2022-08-25T08:30:53.713Z,9.40
2022-08-25T08:33:58.986Z,9.83
2022-08-25T08:37:02.035Z,10.17
2022-08-25T08:40:07.207Z,10.30
2022-08-25T08:43:18.953Z,10.75
2022-08-25T08:46:25.944Z,11.60
2022-08-25T08:49:38.844Z,10.37
2022-08-25T08:52:46.163Z,9.80
2022-08-25T08:55:56.767Z,10.93
2022-08-25T08:59:06.310Z,11.73
2022-08-25T09:02:22.100Z,11.10
2022-08-25T09:05:48.340Z,11.53
2022-08-25T09:08:51.361Z,10.47
2022-08-25T09:12:09.706Z,9.68
2022-08-25T09:15:20.381Z,10.18
2022-08-25T09:18:30.097Z,10.93
2022-08-25T09:21:41.459Z,11.23
2022-08-25T09:24:58.133Z,10.67
2022-08-25T09:28:08.460Z,11.90
2022-08-25T09:31:18.832Z,10.50
2022-08-25T09:34:25.643Z,11.02
2022-08-25T09:37:29.866Z,10.67
2022-08-25T09:40:35.322Z,10.33
2022-08-25T09:43:42.611Z,10.50
2022-08-25T09:46:57.124Z,11.32
2022-08-25T09:50:05.320Z,10.45
2022-08-25T09:53:17.619Z,11.17
2022-08-25T09:56:24.367Z,10.43
2022-08-25T09:59:35.196Z,10.85
2022-08-25T10:02:38.621Z,11.20
2022-08-25T10:06:02.714Z,10.27
2022-08-25T10:09:09.751Z,10.73
2022-08-25T10:12:18.794Z,10.80
2022-08-25T10:15:30.327Z,10.43
2022-08-25T10:18:33.468Z,10.70
2022-08-25T10:21:38.333Z,11.23
2022-08-25T10:24:44.150Z,10.87
2022-08-25T10:27:54.975Z,11.57
2022-08-25T10:31:09.706Z,11.32
2022-08-25T10:34:26.419Z,10.50
2022-08-25T10:37:38.313Z,10.25
2022-08-25T10:40:49.847Z,9.70
2022-08-25T10:44:03.965Z,10.70
2022-08-25T10:47:34.540Z,10.15
2022-08-25T10:50:45.464Z,9.27
2022-08-25T10:53:58.053Z,8.43
2022-08-25T10:57:13.053Z,9.27
2022-08-25T11:00:19.601Z,8.63
2022-08-25T11:03:38.920Z,8.35
2022-08-25T11:06:52.708Z,7.93
2022-08-25T11:10:04.087Z,7.38
2022-08-25T11:13:15.734Z,7.90
2022-08-25T11:16:23.237Z,7.70
2022-08-25T11:19:32.782Z,6.80
2022-08-25T11:22:43.642Z,6.90
2022-08-25T11:25:50.525Z,7.35
2022-08-25T11:29:02.543Z,7.40
2022-08-25T11:32:06.293Z,6.57
2022-08-25T11:35:13.076Z,6.50
2022-08-25T11:38:29.964Z,6.68
2022-08-25T11:41:41.699Z,6.38
2022-08-25T11:44:56.079Z,6.47
2022-08-25T11:48:11.645Z,6.53
2022-08-25T11:51:33.802Z,6.60
2022-08-25T11:54:44.379Z,6.60
2022-08-25T11:57:53.587Z,6.15
2022-08-25T12:01:00.140Z,6.70
2022-08-25T12:04:14.850Z,5.80
2022-08-25T12:07:25.035Z,6.60
2022-08-25T12:10:55.945Z,6.38
2022-08-25T12:14:16.194Z,6.20
2022-08-25T12:17:39.621Z,6.40
2022-08-25T12:21:30.744Z,5.60
2022-08-25T12:24:51.618Z,5.65
2022-08-25T12:28:04.896Z,6.10
2022-08-25T12:31:23.142Z,6.07
2022-08-25T12:34:51.411Z,5.97
2022-08-25T12:37:56.973Z,6.00
2022-08-25T12:41:04.686Z,6.18
2022-08-25T12:44:21.022Z,5.88
2022-08-25T12:47:32.430Z,5.95
2022-08-25T12:50:43.250Z,5.67
2022-08-25T12:53:49.450Z,5.60
2022-08-25T12:56:56.184Z,5.68
2022-08-25T13:00:05.664Z,6.00
2022-08-25T13:07:03.028Z,6.07
2022-08-25T13:10:21.472Z,5.70
2022-08-25T13:13:40.671Z,5.95
2022-08-25T13:16:54.442Z,5.80
2022-08-25T13:20:18.153Z,5.88
2022-08-25T13:23:29.207Z,5.40
2022-08-25T13:26:34.871Z,6.00
2022-08-25T13:29:51.562Z,5.47
2022-08-25T13:32:55.768Z,5.40
2022-08-25T13:36:17.574Z,6.00
2022-08-25T13:39:45.526Z,6.00
2022-08-25T13:42:55.583Z,5.57
2022-08-25T13:45:58.879Z,5.68
2022-08-25T13:49:08.765Z,6.15
2022-08-25T13:52:19.239Z,5.25
2022-08-25T13:55:51.507Z,5.50
2022-08-25T13:58:56.426Z,5.80
2022-08-25T14:02:00.173Z,5.70
2022-08-25T14:05:03.578Z,6.10
2022-08-25T14:08:31.767Z,6.10
2022-08-25T14:11:44.900Z,5.73
2022-08-25T14:14:59.656Z,6.00
2022-08-25T14:18:07.275Z,6.43
2022-08-25T14:21:12.019Z,6.20
2022-08-25T14:24:18.030Z,7.60
2022-08-25T14:27:26.596Z,6.00
2022-08-25T14:30:29.695Z,6.00
2022-08-25T14:33:38.533Z,5.95
2022-08-25T14:36:41.384Z,5.85
2022-08-25T14:39:48.093Z,5.93
2022-08-25T14:42:52.154Z,5.70
2022-08-25T14:45:54.833Z,6.03
2022-08-25T14:49:00.478Z,5.95
2022-08-25T14:52:09.813Z,5.78
2022-08-25T14:55:13.852Z,6.03
2022-08-25T14:58:34.995Z,6.23
2022-08-25T15:01:51.626Z,5.60
2022-08-25T15:04:57.634Z,5.15
2022-08-25T15:08:18.418Z,5.93
2022-08-25T15:11:21.542Z,5.20
2022-08-25T15:14:29.088Z,5.40
2022-08-25T15:17:36.115Z,5.40
2022-08-25T15:20:39.905Z,5.53
2022-08-25T15:23:44.576Z,5.25
2022-08-25T15:30:00.852Z,5.40
2022-08-25T15:33:03.847Z,5.50
2022-08-25T15:36:11.208Z,5.80
2022-08-25T15:39:19.103Z,5.47
2022-08-25T15:42:22.676Z,6.03
2022-08-25T15:45:29.055Z,5.80
2022-08-25T15:48:33.789Z,5.20
2022-08-25T15:51:37.223Z,5.63
2022-08-25T15:54:40.705Z,5.30
2022-08-25T15:57:44.674Z,5.30
2022-08-25T16:00:56.267Z,5.63
2022-08-25T16:04:00.006Z,5.50
2022-08-25T16:07:02.604Z,5.75
2022-08-25T16:10:07.424Z,5.10
2022-08-25T16:13:11.377Z,5.60
2022-08-25T16:16:16.228Z,5.23
2022-08-25T16:19:18.959Z,5.33
2022-08-25T16:22:21.750Z,5.20
2022-08-25T16:25:25.472Z,5.80
2022-08-25T16:28:28.487Z,5.30
2022-08-25T16:31:32.687Z,5.37
2022-08-25T16:34:35.946Z,5.30
2022-08-25T16:37:38.649Z,5.40
2022-08-25T16:40:43.812Z,5.30
2022-08-25T16:43:47.818Z,5.50
2022-08-25T16:46:54.309Z,5.10
2022-08-25T16:49:57.349Z,5.63
2022-08-25T16:53:29.899Z,4.97
2022-08-25T16:56:35.279Z,5.50
2022-08-25T16:59:39.777Z,5.93
2022-08-25T17:02:44.483Z,6.33
2022-08-25T17:05:48.708Z,5.37
2022-08-25T17:08:52.896Z,5.18
2022-08-25T17:11:57.128Z,5.50
2022-08-25T17:14:59.981Z,5.15
2022-08-25T17:18:04.029Z,4.80
2022-08-25T17:21:09.815Z,5.40
2022-08-25T17:24:15.218Z,5.10
2022-08-25T17:27:18.659Z,5.00
2022-08-25T17:30:21.622Z,5.47
2022-08-25T17:33:25.772Z,5.00
2022-08-25T17:36:31.328Z,5.53
2022-08-25T17:39:34.767Z,5.18
2022-08-25T17:42:37.508Z,5.25
2022-08-25T17:45:40.821Z,5.55
2022-08-25T17:48:45.569Z,5.10
2022-08-25T17:51:48.375Z,5.30
2022-08-25T17:54:52.593Z,5.38
2022-08-25T17:57:55.927Z,5.15
2022-08-25T18:00:59.510Z,5.22
2022-08-25T18:04:06.382Z,5.10
2022-08-25T18:07:19.795Z,5.10
2022-08-25T18:10:22.826Z,5.93
2022-08-25T18:13:26.693Z,6.75
2022-08-25T18:16:31.296Z,6.00
2022-08-25T18:19:35.339Z,5.27
2022-08-25T18:22:41.659Z,4.90
2022-08-25T18:25:48.811Z,5.03
2022-08-25T18:28:51.628Z,5.22
2022-08-25T18:31:59.680Z,5.22
2022-08-25T18:35:06.266Z,5.40
2022-08-25T18:38:27.322Z,5.27
2022-08-25T18:41:36.975Z,5.47
2022-08-25T18:44:43.768Z,5.85
2022-08-25T18:47:53.178Z,5.60
2022-08-25T18:50:58.072Z,5.20
2022-08-25T18:54:02.353Z,5.43
2022-08-25T18:57:08.337Z,5.13
2022-08-25T19:00:15.814Z,5.60
2022-08-25T19:03:21.834Z,5.15
2022-08-25T19:06:25.858Z,5.17
2022-08-25T19:09:28.800Z,5.53
2022-08-25T19:12:33.864Z,5.57
2022-08-25T19:15:42.348Z,5.45
2022-08-25T19:18:46.166Z,5.57
2022-08-25T19:21:50.857Z,5.03
2022-08-25T19:24:53.893Z,5.47
2022-08-25T19:27:58.459Z,5.47
2022-08-25T19:31:04.305Z,5.10
2022-08-25T19:34:08.530Z,5.90
2022-08-25T19:37:14.196Z,5.73
2022-08-25T19:40:19.579Z,5.60
2022-08-25T19:43:22.943Z,6.10
2022-08-25T19:46:33.019Z,5.80
2022-08-25T19:49:38.423Z,6.20
2022-08-25T19:52:45.105Z,5.60
2022-08-25T19:55:48.619Z,5.83
2022-08-25T19:58:51.743Z,6.35
2022-08-25T20:01:54.603Z,5.57
2022-08-25T20:04:59.958Z,5.95
2022-08-25T20:08:05.631Z,5.40
2022-08-25T20:11:08.404Z,5.03
2022-08-25T20:14:12.176Z,5.43
2022-08-25T20:17:24.190Z,5.90
2022-08-25T20:20:32.373Z,5.78
2022-08-25T20:23:55.922Z,5.70
2022-08-25T20:26:59.126Z,5.70
2022-08-25T20:30:03.258Z,5.10
2022-08-25T20:33:08.149Z,5.38
2022-08-25T20:36:15.050Z,5.85
2022-08-25T20:39:20.332Z,5.60
2022-08-25T20:42:22.991Z,5.60
2022-08-25T20:45:26.036Z,5.50
2022-08-25T20:48:29.256Z,5.45
2022-08-25T20:51:32.200Z,5.38
2022-08-25T20:54:36.977Z,6.20
2022-08-25T20:57:39.789Z,6.97
2022-08-25T21:00:42.919Z,6.50
2022-08-25T21:03:45.602Z,6.30
2022-08-25T21:06:51.414Z,5.90
2022-08-25T21:09:55.632Z,5.67
2022-08-25T21:12:58.597Z,6.10
2022-08-25T21:16:03.665Z,6.15
2022-08-25T21:19:11.068Z,5.97
2022-08-25T21:22:13.832Z,6.03
2022-08-25T21:25:18.925Z,6.10
2022-08-25T21:28:21.719Z,5.73
2022-08-25T21:31:24.637Z,6.25
2022-08-25T21:34:28.883Z,6.10
2022-08-25T21:37:32.071Z,6.28
2022-08-25T21:40:37.424Z,6.37
2022-08-25T21:43:40.226Z,6.10
2022-08-25T21:46:53.816Z,5.90
2022-08-25T21:49:57.742Z,6.25
2022-08-25T21:53:00.444Z,6.93
2022-08-25T21:56:06.194Z,6.40
2022-08-25T21:59:10.829Z,6.87
2022-08-25T22:02:19.172Z,6.75
2022-08-25T22:05:24.506Z,6.70
2022-08-25T22:08:30.610Z,6.53
2022-08-25T22:11:36.097Z,6.27
2022-08-25T22:14:39.520Z,6.60
2022-08-25T22:17:42.734Z,6.43
2022-08-25T22:20:45.570Z,6.40
2022-08-25T22:23:48.373Z,6.85
2022-08-25T22:26:52.418Z,6.73
2022-08-25T22:29:57.088Z,7.43
2022-08-25T22:33:00.015Z,6.68
2022-08-25T22:36:03.129Z,6.82
2022-08-25T22:39:07.785Z,6.38
2022-08-25T22:42:12.194Z,6.70
2022-08-25T22:45:14.834Z,7.27
2022-08-25T22:48:20.819Z,6.70
2022-08-25T22:51:25.588Z,6.70
2022-08-25T22:54:28.767Z,6.47
2022-08-25T22:57:35.366Z,6.50
2022-08-25T23:00:40.088Z,7.15
2022-08-25T23:03:44.422Z,6.47
2022-08-25T23:06:47.455Z,6.93
2022-08-25T23:09:50.120Z,6.85
2022-08-25T23:12:54.313Z,7.00
2022-08-25T23:15:57.005Z,6.53
2022-08-25T23:19:00.388Z,6.97
2022-08-25T23:22:12.644Z,6.97
2022-08-25T23:25:17.038Z,7.00
2022-08-25T23:28:22.599Z,6.90
2022-08-25T23:31:25.283Z,6.57
2022-08-25T23:34:28.760Z,6.40
2022-08-25T23:37:31.418Z,6.80
2022-08-25T23:40:35.087Z,7.10
2022-08-25T23:43:40.428Z,6.72
2022-08-25T23:46:44.564Z,6.22
2022-08-25T23:49:48.088Z,7.00
2022-08-25T23:52:51.204Z,7.27
2022-08-25T23:55:54.635Z,7.30
2022-08-25T23:58:59.709Z,7.22
